sensor_id;sensor_type;location;lat;lon;timestamp;P1;durP1;ratioP1;P2;durP2;ratioP2
69910;SDS011;63555;49.920;17.868;2023-07-29T00:03:28;4.23;;;2.03;;
69910;SDS011;63555;49.920;17.868;2023-07-29T00:08:30;2.80;;;1.40;;
69910;SDS011;63555;49.920;17.868;2023-07-29T00:13:30;3.40;;;1.77;;
69910;SDS011;63555;49.920;17.868;2023-07-29T00:18:31;3.20;;;1.80;;
69910;SDS011;63555;49.920;17.868;2023-07-29T00:23:32;4.03;;;1.50;;
69910;SDS011;63555;49.920;17.868;2023-07-29T00:28:32;4.10;;;1.60;;
69910;SDS011;63555;49.920;17.868;2023-07-29T00:33:32;3.87;;;1.73;;
69910;SDS011;63555;49.920;17.868;2023-07-29T00:38:33;3.63;;;1.60;;
69910;SDS011;63555;49.920;17.868;2023-07-29T00:43:33;2.90;;;1.70;;
69910;SDS011;63555;49.920;17.868;2023-07-29T00:48:33;3.30;;;1.63;;
69910;SDS011;63555;49.920;17.868;2023-07-29T00:53:34;3.40;;;1.80;;
69910;SDS011;63555;49.920;17.868;2023-07-29T00:58:34;3.07;;;1.60;;
69910;SDS011;63555;49.920;17.868;2023-07-29T01:03:34;5.30;;;1.60;;
69910;SDS011;63555;49.920;17.868;2023-07-29T01:08:41;3.53;;;1.83;;
69910;SDS011;63555;49.920;17.868;2023-07-29T01:13:53;2.97;;;1.67;;
69910;SDS011;63555;49.920;17.868;2023-07-29T01:18:58;3.92;;;1.48;;
69910;SDS011;63555;49.920;17.868;2023-07-29T01:24:05;3.53;;;1.60;;
69910;SDS011;63555;49.920;17.868;2023-07-29T01:29:05;4.20;;;1.80;;
69910;SDS011;63555;49.920;17.868;2023-07-29T01:34:29;3.20;;;1.90;;
69910;SDS011;63555;49.920;17.868;2023-07-29T01:39:29;4.20;;;2.40;;
69910;SDS011;63555;49.920;17.868;2023-07-29T01:44:34;3.78;;;2.00;;
69910;SDS011;63555;49.920;17.868;2023-07-29T01:49:36;4.80;;;2.10;;
69910;SDS011;63555;49.920;17.868;2023-07-29T01:54:36;3.37;;;2.00;;
69910;SDS011;63555;49.920;17.868;2023-07-29T01:59:37;4.93;;;1.67;;
69910;SDS011;63555;49.920;17.868;2023-07-29T02:04:37;3.40;;;2.00;;
69910;SDS011;63555;49.920;17.868;2023-07-29T02:09:37;5.97;;;1.80;;
69910;SDS011;63555;49.920;17.868;2023-07-29T02:14:38;3.77;;;1.97;;
69910;SDS011;63555;49.920;17.868;2023-07-29T02:19:38;4.95;;;2.10;;
69910;SDS011;63555;49.920;17.868;2023-07-29T02:24:39;4.17;;;2.03;;
69910;SDS011;63555;49.920;17.868;2023-07-29T02:29:39;7.80;;;2.10;;
69910;SDS011;63555;49.920;17.868;2023-07-29T02:34:40;5.70;;;2.20;;
69910;SDS011;63555;49.920;17.868;2023-07-29T02:39:40;4.83;;;2.13;;
69910;SDS011;63555;49.920;17.868;2023-07-29T02:44:40;5.90;;;2.23;;
69910;SDS011;63555;49.920;17.868;2023-07-29T02:49:41;3.73;;;2.07;;
69910;SDS011;63555;49.920;17.868;2023-07-29T02:54:41;4.53;;;2.30;;
69910;SDS011;63555;49.920;17.868;2023-07-29T02:59:42;5.33;;;2.53;;
69910;SDS011;63555;49.920;17.868;2023-07-29T03:04:42;4.67;;;2.50;;
69910;SDS011;63555;49.920;17.868;2023-07-29T03:09:42;4.27;;;2.43;;
69910;SDS011;63555;49.920;17.868;2023-07-29T03:14:47;5.60;;;2.00;;
69910;SDS011;63555;49.920;17.868;2023-07-29T03:19:48;4.67;;;2.33;;
69910;SDS011;63555;49.920;17.868;2023-07-29T03:24:48;5.83;;;2.60;;
69910;SDS011;63555;49.920;17.868;2023-07-29T03:29:48;4.07;;;2.33;;
69910;SDS011;63555;49.920;17.868;2023-07-29T03:34:48;4.07;;;2.40;;
69910;SDS011;63555;49.920;17.868;2023-07-29T03:39:49;4.20;;;2.47;;
69910;SDS011;63555;49.920;17.868;2023-07-29T03:44:49;5.17;;;2.30;;
69910;SDS011;63555;49.920;17.868;2023-07-29T03:49:50;4.57;;;2.07;;
69910;SDS011;63555;49.920;17.868;2023-07-29T03:54:50;4.53;;;2.30;;
69910;SDS011;63555;49.920;17.868;2023-07-29T03:59:50;4.87;;;2.20;;
69910;SDS011;63555;49.920;17.868;2023-07-29T04:04:51;4.20;;;2.23;;
69910;SDS011;63555;49.920;17.868;2023-07-29T04:09:51;3.67;;;2.30;;
69910;SDS011;63555;49.920;17.868;2023-07-29T04:14:52;5.33;;;2.50;;
69910;SDS011;63555;49.920;17.868;2023-07-29T04:19:52;5.13;;;2.57;;
69910;SDS011;63555;49.920;17.868;2023-07-29T04:24:52;9.70;;;2.67;;
69910;SDS011;63555;49.920;17.868;2023-07-29T04:29:53;4.25;;;2.10;;
69910;SDS011;63555;49.920;17.868;2023-07-29T04:34:54;6.67;;;2.20;;
69910;SDS011;63555;49.920;17.868;2023-07-29T04:39:54;7.60;;;2.40;;
69910;SDS011;63555;49.920;17.868;2023-07-29T04:44:54;6.47;;;2.70;;
69910;SDS011;63555;49.920;17.868;2023-07-29T04:49:55;5.30;;;2.17;;
69910;SDS011;63555;49.920;17.868;2023-07-29T04:54:55;6.03;;;2.23;;
69910;SDS011;63555;49.920;17.868;2023-07-29T04:59:55;4.90;;;2.20;;
69910;SDS011;63555;49.920;17.868;2023-07-29T05:04:56;4.57;;;2.00;;
69910;SDS011;63555;49.920;17.868;2023-07-29T05:09:56;4.07;;;2.00;;
69910;SDS011;63555;49.920;17.868;2023-07-29T05:14:56;4.10;;;2.33;;
69910;SDS011;63555;49.920;17.868;2023-07-29T05:19:57;4.43;;;2.70;;
69910;SDS011;63555;49.920;17.868;2023-07-29T05:24:57;4.53;;;2.10;;
69910;SDS011;63555;49.920;17.868;2023-07-29T05:29:57;4.33;;;1.63;;
69910;SDS011;63555;49.920;17.868;2023-07-29T05:34:58;4.50;;;2.03;;
69910;SDS011;63555;49.920;17.868;2023-07-29T05:39:59;3.70;;;1.40;;
69910;SDS011;63555;49.920;17.868;2023-07-29T05:44:59;2.47;;;1.10;;
69910;SDS011;63555;49.920;17.868;2023-07-29T05:49:59;3.30;;;1.20;;
69910;SDS011;63555;49.920;17.868;2023-07-29T05:55:04;3.08;;;1.20;;
69910;SDS011;63555;49.920;17.868;2023-07-29T06:00:05;3.15;;;1.10;;
69910;SDS011;63555;49.920;17.868;2023-07-29T06:05:06;2.30;;;1.10;;
69910;SDS011;63555;49.920;17.868;2023-07-29T06:10:07;3.88;;;1.27;;
69910;SDS011;63555;49.920;17.868;2023-07-29T06:15:08;2.80;;;1.20;;
69910;SDS011;63555;49.920;17.868;2023-07-29T06:20:09;2.65;;;1.10;;
69910;SDS011;63555;49.920;17.868;2023-07-29T06:25:09;2.60;;;1.10;;
69910;SDS011;63555;49.920;17.868;2023-07-29T06:30:10;2.73;;;1.20;;
69910;SDS011;63555;49.920;17.868;2023-07-29T06:35:10;2.87;;;1.30;;
69910;SDS011;63555;49.920;17.868;2023-07-29T06:40:11;2.53;;;1.17;;
69910;SDS011;63555;49.920;17.868;2023-07-29T06:45:12;2.40;;;1.05;;
69910;SDS011;63555;49.920;17.868;2023-07-29T06:50:12;2.17;;;1.00;;
69910;SDS011;63555;49.920;17.868;2023-07-29T06:55:12;3.50;;;1.20;;
69910;SDS011;63555;49.920;17.868;2023-07-29T07:00:13;3.27;;;1.10;;
69910;SDS011;63555;49.920;17.868;2023-07-29T07:05:13;4.40;;;1.80;;
69910;SDS011;63555;49.920;17.868;2023-07-29T07:10:14;5.13;;;2.27;;
69910;SDS011;63555;49.920;17.868;2023-07-29T07:15:14;8.30;;;2.33;;
69910;SDS011;63555;49.920;17.868;2023-07-29T07:20:15;6.87;;;2.33;;
69910;SDS011;63555;49.920;17.868;2023-07-29T07:25:16;3.47;;;1.45;;
69910;SDS011;63555;49.920;17.868;2023-07-29T07:30:16;2.57;;;1.10;;
69910;SDS011;63555;49.920;17.868;2023-07-29T07:35:17;2.73;;;1.30;;
69910;SDS011;63555;49.920;17.868;2023-07-29T07:40:18;4.82;;;1.45;;
69910;SDS011;63555;49.920;17.868;2023-07-29T07:45:19;6.40;;;2.83;;
69910;SDS011;63555;49.920;17.868;2023-07-29T07:50:19;3.60;;;1.60;;
69910;SDS011;63555;49.920;17.868;2023-07-29T07:55:20;6.70;;;2.10;;
69910;SDS011;63555;49.920;17.868;2023-07-29T08:00:20;3.73;;;1.70;;
69910;SDS011;63555;49.920;17.868;2023-07-29T08:05:21;3.33;;;1.80;;
69910;SDS011;63555;49.920;17.868;2023-07-29T08:10:21;2.93;;;1.60;;
69910;SDS011;63555;49.920;17.868;2023-07-29T08:15:21;3.70;;;1.80;;
69910;SDS011;63555;49.920;17.868;2023-07-29T08:20:22;3.90;;;1.75;;
69910;SDS011;63555;49.920;17.868;2023-07-29T08:25:23;4.07;;;1.93;;
69910;SDS011;63555;49.920;17.868;2023-07-29T08:30:23;4.33;;;1.80;;
69910;SDS011;63555;49.920;17.868;2023-07-29T08:35:24;3.70;;;2.10;;
69910;SDS011;63555;49.920;17.868;2023-07-29T08:40:25;4.33;;;2.10;;
69910;SDS011;63555;49.920;17.868;2023-07-29T08:45:30;5.05;;;2.50;;
69910;SDS011;63555;49.920;17.868;2023-07-29T08:50:34;5.43;;;2.10;;
69910;SDS011;63555;49.920;17.868;2023-07-29T08:55:36;4.03;;;2.78;;
69910;SDS011;63555;49.920;17.868;2023-07-29T09:00:36;4.10;;;2.50;;
69910;SDS011;63555;49.920;17.868;2023-07-29T09:05:37;4.40;;;2.50;;
69910;SDS011;63555;49.920;17.868;2023-07-29T09:10:38;6.33;;;3.20;;
69910;SDS011;63555;49.920;17.868;2023-07-29T09:15:38;5.30;;;2.90;;
69910;SDS011;63555;49.920;17.868;2023-07-29T09:20:39;4.47;;;2.83;;
69910;SDS011;63555;49.920;17.868;2023-07-29T09:25:39;4.03;;;3.10;;
69910;SDS011;63555;49.920;17.868;2023-07-29T09:30:41;3.60;;;2.70;;
69910;SDS011;63555;49.920;17.868;2023-07-29T09:35:45;3.47;;;2.67;;
69910;SDS011;63555;49.920;17.868;2023-07-29T09:40:45;3.93;;;2.80;;
69910;SDS011;63555;49.920;17.868;2023-07-29T09:45:46;3.50;;;2.50;;
69910;SDS011;63555;49.920;17.868;2023-07-29T09:50:47;5.13;;;2.70;;
69910;SDS011;63555;49.920;17.868;2023-07-29T09:55:47;3.08;;;2.30;;
69910;SDS011;63555;49.920;17.868;2023-07-29T10:00:50;2.83;;;2.20;;
69910;SDS011;63555;49.920;17.868;2023-07-29T10:05:51;3.40;;;2.20;;
69910;SDS011;63555;49.920;17.868;2023-07-29T10:10:52;3.00;;;1.90;;
69910;SDS011;63555;49.920;17.868;2023-07-29T10:15:54;3.10;;;1.88;;
69910;SDS011;63555;49.920;17.868;2023-07-29T10:20:56;5.03;;;2.37;;
69910;SDS011;63555;49.920;17.868;2023-07-29T10:26:02;2.80;;;1.80;;
69910;SDS011;63555;49.920;17.868;2023-07-29T10:31:04;3.33;;;1.90;;
69910;SDS011;63555;49.920;17.868;2023-07-29T10:36:05;4.60;;;2.30;;
69910;SDS011;63555;49.920;17.868;2023-07-29T10:41:05;4.87;;;2.53;;
69910;SDS011;63555;49.920;17.868;2023-07-29T10:46:16;3.40;;;2.20;;
69910;SDS011;63555;49.920;17.868;2023-07-29T10:51:30;2.93;;;2.13;;
69910;SDS011;63555;49.920;17.868;2023-07-29T10:56:35;3.53;;;2.15;;
69910;SDS011;63555;49.920;17.868;2023-07-29T11:01:38;4.23;;;2.03;;
69910;SDS011;63555;49.920;17.868;2023-07-29T11:12:05;6.60;;;1.75;;
69910;SDS011;63555;49.920;17.868;2023-07-29T11:17:26;3.47;;;1.40;;
69910;SDS011;63555;49.920;17.868;2023-07-29T11:22:27;2.90;;;1.80;;
69910;SDS011;63555;49.920;17.868;2023-07-29T11:27:28;3.77;;;1.83;;
69910;SDS011;63555;49.920;17.868;2023-07-29T11:32:28;3.10;;;1.90;;
69910;SDS011;63555;49.920;17.868;2023-07-29T11:37:29;2.83;;;1.80;;
69910;SDS011;63555;49.920;17.868;2023-07-29T11:42:31;2.70;;;1.40;;
69910;SDS011;63555;49.920;17.868;2023-07-29T11:47:33;5.68;;;1.40;;
69910;SDS011;63555;49.920;17.868;2023-07-29T11:52:37;3.57;;;1.77;;
69910;SDS011;63555;49.920;17.868;2023-07-29T11:57:38;3.00;;;1.42;;
69910;SDS011;63555;49.920;17.868;2023-07-29T12:02:40;3.72;;;1.50;;
69910;SDS011;63555;49.920;17.868;2023-07-29T12:07:44;6.07;;;1.70;;
69910;SDS011;63555;49.920;17.868;2023-07-29T12:12:48;3.03;;;1.40;;
69910;SDS011;63555;49.920;17.868;2023-07-29T12:17:52;2.70;;;1.52;;
69910;SDS011;63555;49.920;17.868;2023-07-29T12:22:56;2.95;;;1.40;;
69910;SDS011;63555;49.920;17.868;2023-07-29T12:28:05;2.60;;;1.50;;
69910;SDS011;63555;49.920;17.868;2023-07-29T12:33:06;2.80;;;1.42;;
69910;SDS011;63555;49.920;17.868;2023-07-29T12:38:07;4.10;;;1.67;;
69910;SDS011;63555;49.920;17.868;2023-07-29T12:43:28;2.25;;;1.30;;
69910;SDS011;63555;49.920;17.868;2023-07-29T12:48:28;2.37;;;1.37;;
69910;SDS011;63555;49.920;17.868;2023-07-29T12:53:29;2.50;;;1.50;;
69910;SDS011;63555;49.920;17.868;2023-07-29T12:58:29;2.20;;;1.40;;
69910;SDS011;63555;49.920;17.868;2023-07-29T13:03:30;2.90;;;1.30;;
69910;SDS011;63555;49.920;17.868;2023-07-29T13:08:30;2.70;;;1.20;;
69910;SDS011;63555;49.920;17.868;2023-07-29T13:13:31;3.73;;;1.40;;
69910;SDS011;63555;49.920;17.868;2023-07-29T13:18:32;2.53;;;1.20;;
69910;SDS011;63555;49.920;17.868;2023-07-29T13:23:33;3.00;;;1.47;;
69910;SDS011;63555;49.920;17.868;2023-07-29T13:28:33;2.55;;;1.30;;
69910;SDS011;63555;49.920;17.868;2023-07-29T13:33:33;3.80;;;1.40;;
69910;SDS011;63555;49.920;17.868;2023-07-29T13:38:34;3.10;;;1.20;;
69910;SDS011;63555;49.920;17.868;2023-07-29T13:43:34;3.33;;;1.40;;
69910;SDS011;63555;49.920;17.868;2023-07-29T13:48:35;2.40;;;1.23;;
69910;SDS011;63555;49.920;17.868;2023-07-29T13:53:35;2.40;;;1.40;;
69910;SDS011;63555;49.920;17.868;2023-07-29T13:58:36;2.80;;;1.20;;
69910;SDS011;63555;49.920;17.868;2023-07-29T14:03:36;2.53;;;1.43;;
69910;SDS011;63555;49.920;17.868;2023-07-29T14:08:37;2.53;;;1.60;;
69910;SDS011;63555;49.920;17.868;2023-07-29T14:13:38;2.35;;;1.45;;
69910;SDS011;63555;49.920;17.868;2023-07-29T14:18:38;3.60;;;1.90;;
69910;SDS011;63555;49.920;17.868;2023-07-29T14:23:39;2.63;;;1.60;;
69910;SDS011;63555;49.920;17.868;2023-07-29T14:28:39;2.77;;;1.37;;
69910;SDS011;63555;49.920;17.868;2023-07-29T14:33:40;2.83;;;1.40;;
69910;SDS011;63555;49.920;17.868;2023-07-29T14:38:40;4.80;;;1.27;;
69910;SDS011;63555;49.920;17.868;2023-07-29T14:43:40;2.30;;;1.10;;
69910;SDS011;63555;49.920;17.868;2023-07-29T14:48:41;2.00;;;1.03;;
69910;SDS011;63555;49.920;17.868;2023-07-29T14:53:41;2.90;;;0.90;;
69910;SDS011;63555;49.920;17.868;2023-07-29T14:58:42;2.30;;;1.00;;
69910;SDS011;63555;49.920;17.868;2023-07-29T15:03:42;2.53;;;0.90;;
69910;SDS011;63555;49.920;17.868;2023-07-29T15:08:42;2.10;;;0.93;;
69910;SDS011;63555;49.920;17.868;2023-07-29T15:13:43;1.90;;;0.80;;
69910;SDS011;63555;49.920;17.868;2023-07-29T15:18:43;2.97;;;1.23;;
69910;SDS011;63555;49.920;17.868;2023-07-29T15:23:45;2.47;;;0.60;;
69910;SDS011;63555;49.920;17.868;2023-07-29T15:28:46;5.10;;;0.65;;
69910;SDS011;63555;49.920;17.868;2023-07-29T15:33:46;3.88;;;1.00;;
69910;SDS011;63555;49.920;17.868;2023-07-29T15:38:47;16.03;;;1.10;;
69910;SDS011;63555;49.920;17.868;2023-07-29T15:43:47;3.83;;;0.70;;
69910;SDS011;63555;49.920;17.868;2023-07-29T15:48:48;6.13;;;0.97;;
69910;SDS011;63555;49.920;17.868;2023-07-29T15:53:48;6.90;;;1.80;;
69910;SDS011;63555;49.920;17.868;2023-07-29T15:58:49;7.13;;;2.47;;
69910;SDS011;63555;49.920;17.868;2023-07-29T16:03:49;3.20;;;0.50;;
69910;SDS011;63555;49.920;17.868;2023-07-29T16:08:49;1.20;;;0.23;;
69910;SDS011;63555;49.920;17.868;2023-07-29T16:13:50;3.03;;;1.27;;
69910;SDS011;63555;49.920;17.868;2023-07-29T16:18:50;2.03;;;0.40;;
69910;SDS011;63555;49.920;17.868;2023-07-29T16:23:50;2.27;;;0.40;;
69910;SDS011;63555;49.920;17.868;2023-07-29T16:28:52;2.90;;;0.40;;
69910;SDS011;63555;49.920;17.868;2023-07-29T16:33:53;3.70;;;0.60;;
69910;SDS011;63555;49.920;17.868;2023-07-29T16:38:53;1.77;;;0.40;;
69910;SDS011;63555;49.920;17.868;2023-07-29T16:43:54;1.70;;;0.53;;
69910;SDS011;63555;49.920;17.868;2023-07-29T16:48:54;1.40;;;0.47;;
69910;SDS011;63555;49.920;17.868;2023-07-29T16:53:54;2.20;;;0.50;;
69910;SDS011;63555;49.920;17.868;2023-07-29T16:58:56;2.20;;;0.50;;
69910;SDS011;63555;49.920;17.868;2023-07-29T17:03:56;2.20;;;0.70;;
69910;SDS011;63555;49.920;17.868;2023-07-29T17:08:56;3.73;;;1.23;;
69910;SDS011;63555;49.920;17.868;2023-07-29T17:13:57;2.47;;;0.70;;
69910;SDS011;63555;49.920;17.868;2023-07-29T17:18:57;2.20;;;0.63;;
69910;SDS011;63555;49.920;17.868;2023-07-29T17:23:58;3.07;;;0.50;;
69910;SDS011;63555;49.920;17.868;2023-07-29T17:28:59;1.60;;;0.45;;
69910;SDS011;63555;49.920;17.868;2023-07-29T17:34:00;2.27;;;0.60;;
69910;SDS011;63555;49.920;17.868;2023-07-29T17:39:00;1.70;;;0.50;;
69910;SDS011;63555;49.920;17.868;2023-07-29T17:44:01;1.70;;;0.50;;
69910;SDS011;63555;49.920;17.868;2023-07-29T17:49:01;1.70;;;0.40;;
69910;SDS011;63555;49.920;17.868;2023-07-29T17:54:01;2.73;;;0.60;;
69910;SDS011;63555;49.920;17.868;2023-07-29T17:59:02;1.90;;;0.60;;
69910;SDS011;63555;49.920;17.868;2023-07-29T18:04:02;1.60;;;0.40;;
69910;SDS011;63555;49.920;17.868;2023-07-29T18:09:03;1.80;;;0.50;;
69910;SDS011;63555;49.920;17.868;2023-07-29T18:14:03;1.20;;;0.33;;
69910;SDS011;63555;49.920;17.868;2023-07-29T18:19:04;3.83;;;0.75;;
69910;SDS011;63555;49.920;17.868;2023-07-29T18:24:04;2.07;;;0.57;;
69910;SDS011;63555;49.920;17.868;2023-07-29T18:29:05;2.27;;;0.40;;
69910;SDS011;63555;49.920;17.868;2023-07-29T18:34:05;2.17;;;0.60;;
69910;SDS011;63555;49.920;17.868;2023-07-29T18:39:06;2.17;;;0.53;;
69910;SDS011;63555;49.920;17.868;2023-07-29T18:44:06;2.00;;;0.50;;
69910;SDS011;63555;49.920;17.868;2023-07-29T18:49:07;1.77;;;0.47;;
69910;SDS011;63555;49.920;17.868;2023-07-29T18:54:08;3.10;;;0.57;;
69910;SDS011;63555;49.920;17.868;2023-07-29T18:59:09;3.22;;;0.50;;
69910;SDS011;63555;49.920;17.868;2023-07-29T19:04:09;2.20;;;0.70;;
69910;SDS011;63555;49.920;17.868;2023-07-29T19:09:10;3.00;;;0.90;;
69910;SDS011;63555;49.920;17.868;2023-07-29T19:14:10;3.07;;;0.80;;
69910;SDS011;63555;49.920;17.868;2023-07-29T19:19:11;1.53;;;0.50;;
69910;SDS011;63555;49.920;17.868;2023-07-29T19:24:11;1.80;;;0.47;;
69910;SDS011;63555;49.920;17.868;2023-07-29T19:29:11;2.65;;;0.70;;
69910;SDS011;63555;49.920;17.868;2023-07-29T19:34:14;3.15;;;0.70;;
69910;SDS011;63555;49.920;17.868;2023-07-29T19:39:14;2.60;;;0.60;;
69910;SDS011;63555;49.920;17.868;2023-07-29T19:44:15;1.87;;;0.60;;
69910;SDS011;63555;49.920;17.868;2023-07-29T19:49:16;2.65;;;0.68;;
69910;SDS011;63555;49.920;17.868;2023-07-29T19:54:16;4.33;;;1.37;;
69910;SDS011;63555;49.920;17.868;2023-07-29T19:59:16;5.73;;;1.00;;
69910;SDS011;63555;49.920;17.868;2023-07-29T20:04:17;3.60;;;1.10;;
69910;SDS011;63555;49.920;17.868;2023-07-29T20:09:17;3.17;;;1.03;;
69910;SDS011;63555;49.920;17.868;2023-07-29T20:14:18;3.27;;;1.20;;
69910;SDS011;63555;49.920;17.868;2023-07-29T20:19:18;6.37;;;1.70;;
69910;SDS011;63555;49.920;17.868;2023-07-29T20:24:19;3.00;;;1.00;;
69910;SDS011;63555;49.920;17.868;2023-07-29T20:29:19;3.90;;;1.17;;
69910;SDS011;63555;49.920;17.868;2023-07-29T20:34:20;2.10;;;0.80;;
69910;SDS011;63555;49.920;17.868;2023-07-29T20:39:21;3.50;;;0.80;;
69910;SDS011;63555;49.920;17.868;2023-07-29T20:44:21;3.67;;;0.77;;
69910;SDS011;63555;49.920;17.868;2023-07-29T20:49:22;2.93;;;1.17;;
69910;SDS011;63555;49.920;17.868;2023-07-29T20:54:23;3.30;;;0.88;;
69910;SDS011;63555;49.920;17.868;2023-07-29T20:59:23;2.43;;;0.80;;
69910;SDS011;63555;49.920;17.868;2023-07-29T21:04:23;2.63;;;1.03;;
69910;SDS011;63555;49.920;17.868;2023-07-29T21:09:24;3.40;;;1.20;;
69910;SDS011;63555;49.920;17.868;2023-07-29T21:14:24;2.40;;;0.90;;
69910;SDS011;63555;49.920;17.868;2023-07-29T21:19:25;4.57;;;0.90;;
69910;SDS011;63555;49.920;17.868;2023-07-29T21:24:25;4.33;;;1.27;;
69910;SDS011;63555;49.920;17.868;2023-07-29T21:29:26;3.37;;;1.10;;
69910;SDS011;63555;49.920;17.868;2023-07-29T21:34:26;2.93;;;1.20;;
69910;SDS011;63555;49.920;17.868;2023-07-29T21:39:27;2.33;;;0.90;;
69910;SDS011;63555;49.920;17.868;2023-07-29T21:44:27;2.90;;;1.17;;
69910;SDS011;63555;49.920;17.868;2023-07-29T21:49:27;3.03;;;1.27;;
69910;SDS011;63555;49.920;17.868;2023-07-29T21:54:28;2.85;;;1.08;;
69910;SDS011;63555;49.920;17.868;2023-07-29T21:59:28;7.03;;;1.20;;
69910;SDS011;63555;49.920;17.868;2023-07-29T22:04:29;3.10;;;0.93;;
69910;SDS011;63555;49.920;17.868;2023-07-29T22:09:29;4.60;;;1.27;;
69910;SDS011;63555;49.920;17.868;2023-07-29T22:14:29;2.70;;;1.10;;
69910;SDS011;63555;49.920;17.868;2023-07-29T22:19:30;4.37;;;1.10;;
69910;SDS011;63555;49.920;17.868;2023-07-29T22:24:31;5.27;;;1.20;;
69910;SDS011;63555;49.920;17.868;2023-07-29T22:29:32;6.03;;;1.52;;
69910;SDS011;63555;49.920;17.868;2023-07-29T22:34:32;3.10;;;1.17;;
69910;SDS011;63555;49.920;17.868;2023-07-29T22:39:33;3.90;;;1.03;;
69910;SDS011;63555;49.920;17.868;2023-07-29T22:44:33;3.43;;;1.30;;
69910;SDS011;63555;49.920;17.868;2023-07-29T22:49:33;4.87;;;1.20;;
69910;SDS011;63555;49.920;17.868;2023-07-29T22:54:34;3.43;;;1.17;;
69910;SDS011;63555;49.920;17.868;2023-07-29T22:59:34;5.13;;;1.13;;
69910;SDS011;63555;49.920;17.868;2023-07-29T23:04:34;4.27;;;0.90;;
69910;SDS011;63555;49.920;17.868;2023-07-29T23:09:35;4.83;;;1.23;;
69910;SDS011;63555;49.920;17.868;2023-07-29T23:14:35;4.47;;;1.10;;
69910;SDS011;63555;49.920;17.868;2023-07-29T23:19:35;5.30;;;1.00;;
69910;SDS011;63555;49.920;17.868;2023-07-29T23:24:36;3.07;;;1.07;;
69910;SDS011;63555;49.920;17.868;2023-07-29T23:29:36;5.30;;;1.20;;
69910;SDS011;63555;49.920;17.868;2023-07-29T23:34:36;4.23;;;1.27;;
69910;SDS011;63555;49.920;17.868;2023-07-29T23:39:37;5.07;;;1.03;;
69910;SDS011;63555;49.920;17.868;2023-07-29T23:44:37;4.37;;;1.10;;
69910;SDS011;63555;49.920;17.868;2023-07-29T23:49:38;4.77;;;1.20;;
69910;SDS011;63555;49.920;17.868;2023-07-29T23:54:38;3.03;;;1.00;;
69910;SDS011;63555;49.920;17.868;2023-07-29T23:59:38;2.87;;;1.20;;
